createdAt,value
2023-03-05T00:02:53.079Z,0.51
2023-03-05T00:06:52.977Z,0.52
2023-03-05T00:10:52.930Z,0.52
2023-03-05T00:14:52.882Z,0.52
2023-03-05T00:18:52.850Z,0.51
2023-03-05T00:22:52.893Z,0.51
2023-03-05T00:26:52.934Z,0.51
2023-03-05T00:30:53.034Z,0.52
2023-03-05T00:34:52.982Z,0.51
2023-03-05T00:38:53.006Z,0.51
2023-03-05T00:42:52.956Z,0.51
2023-03-05T00:46:52.997Z,0.51
2023-03-05T00:50:52.935Z,0.52
2023-03-05T00:54:52.880Z,0.52
2023-03-05T00:58:52.851Z,0.51
2023-03-05T01:02:52.818Z,0.51
2023-03-05T01:06:52.820Z,0.51
2023-03-05T01:10:52.779Z,0.52
2023-03-05T01:14:52.754Z,0.52
2023-03-05T01:18:52.789Z,0.51
2023-03-05T01:22:52.808Z,0.51
2023-03-05T01:26:52.784Z,0.51
2023-03-05T01:30:52.765Z,0.52
2023-03-05T01:34:52.782Z,0.52
2023-03-05T01:38:52.767Z,0.51
2023-03-05T01:42:52.747Z,0.51
2023-03-05T01:46:52.777Z,0.51
2023-03-05T01:50:52.820Z,0.51
2023-03-05T01:54:52.820Z,0.51
2023-03-05T01:58:52.848Z,0.51
2023-03-05T02:02:52.932Z,0.52
2023-03-05T02:06:52.938Z,0.51
2023-03-05T02:10:52.916Z,0.51
2023-03-05T02:14:52.936Z,0.51
2023-03-05T02:18:53.014Z,0.52
2023-03-05T02:22:53.036Z,0.51
2023-03-05T02:26:53.096Z,0.51
2023-03-05T02:30:53.128Z,0.50
2023-03-05T02:34:53.157Z,0.50
2023-03-05T02:38:53.209Z,0.51
2023-03-05T02:42:53.230Z,0.51
2023-03-05T02:46:53.290Z,0.52
2023-03-05T02:50:53.366Z,0.52
2023-03-05T02:54:53.411Z,0.52
2023-03-05T02:58:53.500Z,0.51
2023-03-05T03:02:53.537Z,0.51
2023-03-05T03:06:53.596Z,0.51
2023-03-05T03:10:53.637Z,0.51
2023-03-05T03:14:53.700Z,0.52
2023-03-05T03:18:53.748Z,0.51
2023-03-05T03:22:53.880Z,0.51
2023-03-05T03:26:53.888Z,0.51
2023-03-05T03:30:54.074Z,0.52
2023-03-05T03:34:54.037Z,0.51
2023-03-05T03:38:54.133Z,0.52
2023-03-05T03:42:54.181Z,0.52
2023-03-05T03:46:54.233Z,0.51
2023-03-05T03:50:54.325Z,0.52
2023-03-05T03:54:54.429Z,0.51
2023-03-05T03:58:54.503Z,0.51
2023-03-05T04:02:54.592Z,0.52
2023-03-05T04:06:54.678Z,0.52
2023-03-05T04:10:54.776Z,0.51
2023-03-05T04:14:54.820Z,0.52
2023-03-05T04:18:54.947Z,0.52
2023-03-05T04:22:55.022Z,0.51
2023-03-05T04:26:55.123Z,0.52
2023-03-05T04:30:55.266Z,0.51
2023-03-05T04:34:55.329Z,0.52
2023-03-05T04:38:55.423Z,0.51
2023-03-05T04:42:55.528Z,0.52
2023-03-05T04:46:55.631Z,0.51
2023-03-05T04:50:55.769Z,0.52
2023-03-05T04:54:55.891Z,0.52
2023-03-05T04:58:56.003Z,0.51
2023-03-05T05:02:56.173Z,0.52
2023-03-05T05:06:56.277Z,0.51
2023-03-05T05:10:56.372Z,0.52
2023-03-05T05:14:56.493Z,0.51
2023-03-05T05:18:56.659Z,0.51
2023-03-05T05:22:56.854Z,0.51
2023-03-05T05:26:56.924Z,0.51
2023-03-05T05:30:57.032Z,0.52
2023-03-05T05:34:57.170Z,0.51
2023-03-05T05:38:57.313Z,0.52
2023-03-05T05:42:57.459Z,0.51
2023-03-05T05:46:57.563Z,0.51
2023-03-05T05:50:57.719Z,0.51
2023-03-05T05:54:57.853Z,0.51
2023-03-05T05:58:57.977Z,0.51
2023-03-05T06:02:58.220Z,0.51
2023-03-05T06:06:58.294Z,0.52
2023-03-05T06:10:58.388Z,0.51
2023-03-05T06:14:58.564Z,0.52
2023-03-05T06:18:58.673Z,0.52
2023-03-05T06:22:58.826Z,0.50
2023-03-05T06:26:58.949Z,0.50
2023-03-05T06:30:59.148Z,0.52
2023-03-05T06:34:59.190Z,0.52
2023-03-05T06:38:59.328Z,0.51
2023-03-05T06:42:59.470Z,0.51
2023-03-05T06:46:59.625Z,0.51
2023-03-05T06:50:59.714Z,0.51
2023-03-05T06:54:59.865Z,0.51
2023-03-05T06:59:00.013Z,0.52
2023-03-05T07:03:00.156Z,0.52
2023-03-05T07:07:00.248Z,0.52
2023-03-05T07:11:00.403Z,0.51
2023-03-05T07:15:00.529Z,0.52
2023-03-05T07:19:00.689Z,0.52
2023-03-05T07:23:00.817Z,0.52
2023-03-05T07:27:01.249Z,0.51
2023-03-05T07:31:01.197Z,0.52
2023-03-05T07:35:01.235Z,0.52
2023-03-05T07:39:01.361Z,0.52
2023-03-05T07:43:01.430Z,0.52
2023-03-05T07:47:01.571Z,0.52
2023-03-05T07:51:01.685Z,0.53
2023-03-05T07:55:01.787Z,0.52
2023-03-05T07:59:01.874Z,0.52
2023-03-05T08:03:01.973Z,0.53
2023-03-05T08:07:02.024Z,0.53
2023-03-05T08:11:03.309Z,0.54
2023-03-05T08:15:02.144Z,0.53
2023-03-05T08:19:02.135Z,0.52
2023-03-05T08:23:02.172Z,0.52
2023-03-05T08:27:02.167Z,0.53
2023-03-05T08:31:02.154Z,0.52
2023-03-05T08:35:02.068Z,0.53
2023-03-05T08:39:02.132Z,0.52
2023-03-05T08:43:02.172Z,0.52
2023-03-05T08:47:02.419Z,0.53
2023-03-05T08:51:02.404Z,0.53
2023-03-05T08:55:02.314Z,0.53
2023-03-05T08:59:02.262Z,0.53
2023-03-05T09:03:02.259Z,0.53
2023-03-05T09:07:02.239Z,0.53
2023-03-05T09:11:02.199Z,0.54
2023-03-05T09:15:02.157Z,0.54
2023-03-05T09:19:02.109Z,0.53
2023-03-05T09:23:02.081Z,0.53
2023-03-05T09:27:02.020Z,0.54
2023-03-05T09:31:02.073Z,0.54
2023-03-05T09:35:02.153Z,0.54
2023-03-05T09:39:02.249Z,0.55
2023-03-05T09:43:02.320Z,0.54
2023-03-05T09:47:02.368Z,0.54
2023-03-05T09:51:02.366Z,0.55
2023-03-05T09:55:02.376Z,0.55
2023-03-05T09:59:02.351Z,0.54
2023-03-05T10:03:02.412Z,0.56
2023-03-05T10:07:02.366Z,0.56
2023-03-05T10:11:02.462Z,0.56
2023-03-05T10:15:02.637Z,0.57
2023-03-05T10:19:02.870Z,0.57
2023-03-05T10:23:02.830Z,0.56
2023-03-05T10:27:02.900Z,0.58
2023-03-05T10:31:02.786Z,0.57
2023-03-05T10:35:02.755Z,0.57
2023-03-05T10:39:02.701Z,0.58
2023-03-05T10:43:02.635Z,0.58
2023-03-05T10:47:02.611Z,0.58
2023-03-05T10:51:02.607Z,0.58
2023-03-05T10:55:02.540Z,0.58
2023-03-05T10:59:02.511Z,0.57
2023-03-05T11:03:02.500Z,0.58
2023-03-05T11:07:02.425Z,0.57
2023-03-05T11:11:03.965Z,0.58
2023-03-05T11:15:02.398Z,0.56
2023-03-05T11:19:02.314Z,0.55
2023-03-05T11:23:02.346Z,0.55
2023-03-05T11:27:02.394Z,0.57
2023-03-05T11:31:02.594Z,0.55
2023-03-05T11:35:02.481Z,0.56
2023-03-05T11:39:02.497Z,0.58
2023-03-05T11:43:02.487Z,0.56
2023-03-05T11:47:02.455Z,0.54
2023-03-05T11:51:02.459Z,0.53
2023-03-05T11:55:02.416Z,0.54
2023-03-05T11:59:02.451Z,0.55
2023-03-05T12:03:02.585Z,0.54
2023-03-05T12:07:02.741Z,0.53
2023-03-05T12:11:02.924Z,0.54
2023-03-05T12:15:02.888Z,0.53
2023-03-05T12:19:02.911Z,0.54
2023-03-05T12:23:02.827Z,0.53
2023-03-05T12:27:02.809Z,0.54
2023-03-05T12:31:02.827Z,0.54
2023-03-05T12:35:02.731Z,0.54
2023-03-05T12:39:02.686Z,0.54
2023-03-05T12:43:02.638Z,0.54
2023-03-05T12:47:02.676Z,0.53
2023-03-05T12:51:02.598Z,0.53
2023-03-05T12:55:02.783Z,0.53
2023-03-05T12:59:03.008Z,0.53
2023-03-05T13:03:03.240Z,0.53
2023-03-05T13:07:03.416Z,0.52
2023-03-05T13:11:03.607Z,0.53
2023-03-05T13:15:03.824Z,0.53
2023-03-05T13:19:03.986Z,0.52
2023-03-05T13:23:04.241Z,0.52
2023-03-05T13:27:04.425Z,0.52
2023-03-05T13:31:04.576Z,0.52
2023-03-05T13:35:04.733Z,0.53
2023-03-05T13:39:04.907Z,0.53
2023-03-05T13:43:05.161Z,0.52
2023-03-05T13:47:05.294Z,0.51
2023-03-05T13:51:05.486Z,0.51
2023-03-05T13:55:05.639Z,0.51
2023-03-05T13:59:05.850Z,0.52
2023-03-05T14:03:05.996Z,0.51
2023-03-05T14:07:06.204Z,0.51
2023-03-05T14:11:06.381Z,0.50
2023-03-05T14:15:06.578Z,0.51
2023-03-05T14:19:06.748Z,0.51
2023-03-05T14:23:09.512Z,0.51
2023-03-05T14:27:06.971Z,0.51
2023-03-05T14:31:06.926Z,0.52
2023-03-05T14:35:06.877Z,0.51
2023-03-05T14:39:06.843Z,0.51
2023-03-05T14:43:06.879Z,0.51
2023-03-05T14:47:07.084Z,0.51
2023-03-05T14:51:07.074Z,0.52
2023-03-05T14:55:07.033Z,0.52
2023-03-05T14:59:06.984Z,0.51
2023-03-05T15:03:06.968Z,0.51
2023-03-05T15:07:06.891Z,0.53
2023-03-05T15:11:06.858Z,0.54
2023-03-05T15:15:06.816Z,0.53
2023-03-05T15:19:06.836Z,0.52
2023-03-05T15:23:06.768Z,0.51
2023-03-05T15:27:06.759Z,0.53
2023-03-05T15:31:06.765Z,0.51
2023-03-05T15:35:06.706Z,0.51
2023-03-05T15:39:06.678Z,0.53
2023-03-05T15:43:06.691Z,0.53
2023-03-05T15:47:06.675Z,0.51
2023-03-05T15:51:06.647Z,0.52
2023-03-05T15:55:06.676Z,0.54
2023-03-05T15:59:06.675Z,0.55
2023-03-05T16:03:06.743Z,0.52
2023-03-05T16:07:06.720Z,0.53
2023-03-05T16:11:06.790Z,0.54
2023-03-05T16:15:06.866Z,0.55
2023-03-05T16:19:06.910Z,0.53
2023-03-05T16:23:06.994Z,0.54
2023-03-05T16:27:07.070Z,0.52
2023-03-05T16:31:07.293Z,0.51
2023-03-05T16:35:07.245Z,0.53
2023-03-05T16:39:07.338Z,0.53
2023-03-05T16:43:07.434Z,0.52
2023-03-05T16:47:07.566Z,0.54
2023-03-05T16:51:07.591Z,0.53
2023-03-05T16:55:07.636Z,0.52
2023-03-05T16:59:07.713Z,0.53
2023-03-05T17:03:07.802Z,0.53
2023-03-05T17:07:07.915Z,0.53
2023-03-05T17:11:08.004Z,0.53
2023-03-05T17:15:08.080Z,0.53
2023-03-05T17:19:08.226Z,0.52
2023-03-05T17:23:08.328Z,0.52
2023-03-05T17:27:08.426Z,0.52
2023-03-05T17:31:08.595Z,0.52
2023-03-05T17:35:08.709Z,0.52
2023-03-05T17:39:08.943Z,0.51
2023-03-05T17:43:09.014Z,0.52
2023-03-05T17:47:09.210Z,0.52
2023-03-05T17:51:09.405Z,0.52
2023-03-05T17:55:09.540Z,0.51
2023-03-05T17:59:09.719Z,0.51
2023-03-05T18:03:10.040Z,0.51
2023-03-05T18:07:10.115Z,0.51
2023-03-05T18:11:10.332Z,0.52
2023-03-05T18:15:10.571Z,0.51
2023-03-05T18:19:10.750Z,0.51
2023-03-05T18:23:10.728Z,0.51
2023-03-05T18:27:10.706Z,0.51
2023-03-05T18:31:10.706Z,0.51
2023-03-05T18:35:10.632Z,0.51
2023-03-05T18:39:10.587Z,0.51
2023-03-05T18:43:10.545Z,0.51
2023-03-05T18:47:10.487Z,0.51
2023-03-05T18:51:10.466Z,0.51
2023-03-05T18:55:10.467Z,0.52
2023-03-05T18:59:10.481Z,0.52
2023-03-05T19:03:10.487Z,0.51
2023-03-05T19:07:10.467Z,0.51
2023-03-05T19:11:10.400Z,0.51
2023-03-05T19:15:10.342Z,0.52
2023-03-05T19:19:10.314Z,0.51
2023-03-05T19:23:10.286Z,0.51
2023-03-05T19:27:10.270Z,0.51
2023-03-05T19:31:10.270Z,0.50
2023-03-05T19:35:10.200Z,0.51
2023-03-05T19:39:10.147Z,0.51
2023-03-05T19:43:10.102Z,0.51
2023-03-05T19:47:10.079Z,0.51
2023-03-05T19:51:10.024Z,0.51
2023-03-05T19:55:09.981Z,0.51
2023-03-05T19:59:09.976Z,0.51
2023-03-05T20:03:09.931Z,0.51
2023-03-05T20:07:09.886Z,0.51
2023-03-05T20:11:09.875Z,0.52
2023-03-05T20:15:09.805Z,0.51
2023-03-05T20:19:09.778Z,0.52
2023-03-05T20:23:09.741Z,0.51
2023-03-05T20:27:09.720Z,0.51
2023-03-05T20:31:09.748Z,0.52
2023-03-05T20:35:09.602Z,0.52
2023-03-05T20:39:09.609Z,0.51
2023-03-05T20:43:09.554Z,0.52
2023-03-05T20:47:09.574Z,0.52
2023-03-05T20:51:09.489Z,0.51
2023-03-05T20:55:09.444Z,0.51
2023-03-05T20:59:09.444Z,0.52
2023-03-05T21:03:09.512Z,0.51
2023-03-05T21:07:09.474Z,0.52
2023-03-05T21:11:09.486Z,0.52
2023-03-05T21:15:09.570Z,0.51
2023-03-05T21:19:09.625Z,0.52
2023-03-05T21:23:09.688Z,0.51
2023-03-05T21:27:09.734Z,0.52
2023-03-05T21:31:09.762Z,0.52
2023-03-05T21:35:09.831Z,0.51
2023-03-05T21:39:09.969Z,0.51
2023-03-05T21:43:09.954Z,0.50
2023-03-05T21:47:10.074Z,0.51
2023-03-05T21:51:10.182Z,0.52
2023-03-05T21:55:10.250Z,0.50
2023-03-05T21:59:10.329Z,0.50
2023-03-05T22:03:10.432Z,0.51
2023-03-05T22:07:10.522Z,0.51
2023-03-05T22:11:10.648Z,0.52
2023-03-05T22:15:10.735Z,0.51
2023-03-05T22:19:10.892Z,0.51
2023-03-05T22:23:11.007Z,0.51
2023-03-05T22:27:11.104Z,0.52
2023-03-05T22:31:11.280Z,0.52
2023-03-05T22:35:11.362Z,0.52
2023-03-05T22:39:11.515Z,0.51
2023-03-05T22:43:11.653Z,0.51
2023-03-05T22:47:11.761Z,0.52
2023-03-05T22:51:11.948Z,0.52
2023-03-05T22:55:12.076Z,0.52
2023-03-05T22:59:12.235Z,0.52
2023-03-05T23:03:12.413Z,0.52
2023-03-05T23:07:12.569Z,0.52
2023-03-05T23:11:12.731Z,0.52
2023-03-05T23:15:12.868Z,0.52
2023-03-05T23:19:13.046Z,0.51
2023-03-05T23:23:13.210Z,0.52
2023-03-05T23:27:13.380Z,0.52
2023-03-05T23:31:13.621Z,0.51
2023-03-05T23:35:13.713Z,0.51
2023-03-05T23:39:14.000Z,0.51
2023-03-05T23:43:14.058Z,0.51
2023-03-05T23:47:14.240Z,0.51
2023-03-05T23:51:14.501Z,0.51
2023-03-05T23:55:14.612Z,0.50
2023-03-05T23:59:14.838Z,0.51
